sensor_id;sensor_type;location;lat;lon;timestamp;pressure;altitude;pressure_sealevel;temperature;humidity
16451;BME280;12243;42.708;23.310;2022-10-15T00:00:22;95275.28;;;12.35;89.32
16451;BME280;12243;42.708;23.310;2022-10-15T00:02:49;95277.44;;;12.30;89.94
16451;BME280;12243;42.708;23.310;2022-10-15T00:05:16;95275.63;;;12.21;90.52
16451;BME280;12243;42.708;23.310;2022-10-15T00:07:44;95274.97;;;12.29;90.41
16451;BME280;12243;42.708;23.310;2022-10-15T00:10:11;95273.97;;;12.20;91.01
16451;BME280;12243;42.708;23.310;2022-10-15T00:12:39;95262.06;;;12.27;91.63
16451;BME280;12243;42.708;23.310;2022-10-15T00:15:07;95272.50;;;12.27;91.56
16451;BME280;12243;42.708;23.310;2022-10-15T00:17:34;95265.34;;;12.29;91.26
16451;BME280;12243;42.708;23.310;2022-10-15T00:20:03;95260.53;;;12.25;91.97
16451;BME280;12243;42.708;23.310;2022-10-15T00:22:30;95264.38;;;12.30;92.29
16451;BME280;12243;42.708;23.310;2022-10-15T00:24:59;95253.84;;;12.42;91.06
16451;BME280;12243;42.708;23.310;2022-10-15T00:27:25;95252.19;;;12.40;91.31
16451;BME280;12243;42.708;23.310;2022-10-15T00:29:52;95259.84;;;12.32;91.54
16451;BME280;12243;42.708;23.310;2022-10-15T00:32:19;95255.72;;;12.30;92.20
16451;BME280;12243;42.708;23.310;2022-10-15T00:34:46;95253.50;;;12.25;93.05
16451;BME280;12243;42.708;23.310;2022-10-15T00:37:13;95250.03;;;12.15;92.63
16451;BME280;12243;42.708;23.310;2022-10-15T00:39:42;95254.03;;;12.19;93.73
16451;BME280;12243;42.708;23.310;2022-10-15T00:42:10;95240.00;;;12.20;93.98
16451;BME280;12243;42.708;23.310;2022-10-15T00:44:48;95245.16;;;12.31;92.97
16451;BME280;12243;42.708;23.310;2022-10-15T00:47:19;95243.09;;;12.35;92.78
16451;BME280;12243;42.708;23.310;2022-10-15T00:50:00;95233.44;;;12.26;93.04
16451;BME280;12243;42.708;23.310;2022-10-15T00:52:36;95237.59;;;12.28;93.22
16451;BME280;12243;42.708;23.310;2022-10-15T00:55:08;95237.59;;;12.28;93.78
16451;BME280;12243;42.708;23.310;2022-10-15T00:57:37;95237.03;;;12.25;93.88
16451;BME280;12243;42.708;23.310;2022-10-15T01:00:07;95235.94;;;12.37;93.80
16451;BME280;12243;42.708;23.310;2022-10-15T01:02:36;95229.63;;;12.39;93.92
16451;BME280;12243;42.708;23.310;2022-10-15T01:05:05;95239.13;;;12.40;92.84
16451;BME280;12243;42.708;23.310;2022-10-15T01:07:32;95240.63;;;12.43;93.29
16451;BME280;12243;42.708;23.310;2022-10-15T01:10:00;95246.38;;;12.37;93.40
16451;BME280;12243;42.708;23.310;2022-10-15T01:12:40;95242.28;;;12.34;94.44
16451;BME280;12243;42.708;23.310;2022-10-15T01:15:15;95240.50;;;12.45;93.78
16451;BME280;12243;42.708;23.310;2022-10-15T01:17:47;95232.66;;;12.45;93.53
16451;BME280;12243;42.708;23.310;2022-10-15T01:20:49;95232.78;;;12.33;94.04
16451;BME280;12243;42.708;23.310;2022-10-15T01:26:46;95238.97;;;12.32;94.62
16451;BME280;12243;42.708;23.310;2022-10-15T01:29:32;95234.53;;;12.23;95.63
16451;BME280;12243;42.708;23.310;2022-10-15T01:32:11;95238.94;;;12.23;95.02
16451;BME280;12243;42.708;23.310;2022-10-15T01:34:47;95241.44;;;12.24;95.95
16451;BME280;12243;42.708;23.310;2022-10-15T01:37:19;95239.19;;;12.20;96.49
16451;BME280;12243;42.708;23.310;2022-10-15T01:39:51;95238.06;;;12.12;97.11
16451;BME280;12243;42.708;23.310;2022-10-15T01:42:26;95238.78;;;12.14;97.13
16451;BME280;12243;42.708;23.310;2022-10-15T01:44:58;95233.09;;;12.09;97.09
16451;BME280;12243;42.708;23.310;2022-10-15T01:47:51;95232.06;;;12.22;97.02
16451;BME280;12243;42.708;23.310;2022-10-15T01:50:22;95233.19;;;12.29;96.73
16451;BME280;12243;42.708;23.310;2022-10-15T01:52:51;95237.06;;;12.34;96.86
16451;BME280;12243;42.708;23.310;2022-10-15T01:55:21;95235.94;;;12.27;96.21
16451;BME280;12243;42.708;23.310;2022-10-15T01:57:49;95232.63;;;12.25;97.64
16451;BME280;12243;42.708;23.310;2022-10-15T02:00:17;95236.19;;;12.24;97.52
16451;BME280;12243;42.708;23.310;2022-10-15T02:02:44;95235.75;;;12.19;97.15
16451;BME280;12243;42.708;23.310;2022-10-15T02:05:16;95238.63;;;12.16;98.23
16451;BME280;12243;42.708;23.310;2022-10-15T02:07:55;95230.69;;;12.18;97.85
16451;BME280;12243;42.708;23.310;2022-10-15T02:10:27;95227.94;;;12.19;97.85
16451;BME280;12243;42.708;23.310;2022-10-15T02:13:03;95235.59;;;12.11;98.47
16451;BME280;12243;42.708;23.310;2022-10-15T02:15:39;95233.41;;;12.16;98.61
16451;BME280;12243;42.708;23.310;2022-10-15T02:18:15;95237.97;;;12.14;98.74
16451;BME280;12243;42.708;23.310;2022-10-15T02:20:52;95229.69;;;12.09;98.39
16451;BME280;12243;42.708;23.310;2022-10-15T02:23:25;95240.81;;;12.11;98.73
16451;BME280;12243;42.708;23.310;2022-10-15T02:25:58;95244.13;;;12.13;98.43
16451;BME280;12243;42.708;23.310;2022-10-15T02:28:26;95237.25;;;12.12;98.20
16451;BME280;12243;42.708;23.310;2022-10-15T02:30:55;95235.59;;;12.11;99.18
16451;BME280;12243;42.708;23.310;2022-10-15T02:33:24;95239.84;;;12.12;99.30
16451;BME280;12243;42.708;23.310;2022-10-15T02:35:54;95242.22;;;12.15;98.57
16451;BME280;12243;42.708;23.310;2022-10-15T02:38:25;95244.13;;;12.13;98.40
16451;BME280;12243;42.708;23.310;2022-10-15T02:40:53;95244.13;;;12.13;98.80
16451;BME280;12243;42.708;23.310;2022-10-15T02:43:20;95249.78;;;12.18;98.56
16451;BME280;12243;42.708;23.310;2022-10-15T02:45:49;95244.81;;;12.15;98.90
16451;BME280;12243;42.708;23.310;2022-10-15T02:48:18;95247.44;;;12.15;98.75
16451;BME280;12243;42.708;23.310;2022-10-15T02:50:47;95233.66;;;12.13;98.41
16451;BME280;12243;42.708;23.310;2022-10-15T02:53:15;95247.16;;;12.18;99.09
16451;BME280;12243;42.708;23.310;2022-10-15T02:55:42;95229.44;;;12.22;98.87
16451;BME280;12243;42.708;23.310;2022-10-15T02:58:10;95239.75;;;12.23;97.84
16451;BME280;12243;42.708;23.310;2022-10-15T03:00:38;95242.63;;;12.20;98.74
16451;BME280;12243;42.708;23.310;2022-10-15T03:03:04;95235.50;;;12.22;98.81
16451;BME280;12243;42.708;23.310;2022-10-15T03:05:33;95237.56;;;12.19;97.85
16451;BME280;12243;42.708;23.310;2022-10-15T03:08:00;95240.00;;;12.20;98.23
16451;BME280;12243;42.708;23.310;2022-10-15T03:10:29;95227.94;;;12.19;97.36
16451;BME280;12243;42.708;23.310;2022-10-15T03:13:01;95231.91;;;12.23;97.90
16451;BME280;12243;42.708;23.310;2022-10-15T03:15:30;95228.91;;;12.18;97.87
16451;BME280;12243;42.708;23.310;2022-10-15T03:17:56;95231.75;;;12.15;97.94
16451;BME280;12243;42.708;23.310;2022-10-15T03:20:23;95231.09;;;12.23;98.24
16451;BME280;12243;42.708;23.310;2022-10-15T03:22:51;95240.03;;;12.30;98.18
16451;BME280;12243;42.708;23.310;2022-10-15T03:25:18;95240.00;;;12.20;97.87
16451;BME280;12243;42.708;23.310;2022-10-15T03:27:51;95236.72;;;12.18;98.13
16451;BME280;12243;42.708;23.310;2022-10-15T03:30:24;95247.94;;;12.09;98.70
16451;BME280;12243;42.708;23.310;2022-10-15T03:32:51;95252.66;;;12.15;98.47
16451;BME280;12243;42.708;23.310;2022-10-15T03:35:18;95247.78;;;12.01;98.55
16451;BME280;12243;42.708;23.310;2022-10-15T03:37:45;95250.41;;;12.01;98.79
16451;BME280;12243;42.708;23.310;2022-10-15T03:40:12;95243.91;;;11.95;99.83
16451;BME280;12243;42.708;23.310;2022-10-15T03:42:39;95246.31;;;12.08;98.97
16451;BME280;12243;42.708;23.310;2022-10-15T03:45:10;95248.91;;;12.08;99.60
16451;BME280;12243;42.708;23.310;2022-10-15T03:47:37;95239.44;;;12.07;99.19
16451;BME280;12243;42.708;23.310;2022-10-15T03:50:04;95241.09;;;12.08;99.28
16451;BME280;12243;42.708;23.310;2022-10-15T03:52:31;95240.78;;;12.01;100.00
16451;BME280;12243;42.708;23.310;2022-10-15T03:54:58;95252.59;;;12.05;99.96
16451;BME280;12243;42.708;23.310;2022-10-15T03:57:25;95256.03;;;12.06;99.61
16451;BME280;12243;42.708;23.310;2022-10-15T03:59:58;95258.66;;;12.06;99.41
16451;BME280;12243;42.708;23.310;2022-10-15T04:02:29;95258.28;;;12.10;99.09
16451;BME280;12243;42.708;23.310;2022-10-15T04:04:56;95253.16;;;12.09;99.62
16451;BME280;12243;42.708;23.310;2022-10-15T04:07:24;95256.31;;;12.03;99.83
16451;BME280;12243;42.708;23.310;2022-10-15T04:09:51;95255.94;;;12.07;100.00
16451;BME280;12243;42.708;23.310;2022-10-15T04:12:22;95255.53;;;12.12;99.20
16451;BME280;12243;42.708;23.310;2022-10-15T04:14:49;95257.06;;;12.14;99.65
16451;BME280;12243;42.708;23.310;2022-10-15T04:17:16;95251.94;;;12.13;99.28
16451;BME280;12243;42.708;23.310;2022-10-15T04:19:45;95259.97;;;12.21;98.96
16451;BME280;12243;42.708;23.310;2022-10-15T04:22:13;95260.47;;;12.15;99.21
16451;BME280;12243;42.708;23.310;2022-10-15T04:24:46;95257.88;;;12.15;99.22
16451;BME280;12243;42.708;23.310;2022-10-15T04:27:23;95262.28;;;12.14;99.80
16451;BME280;12243;42.708;23.310;2022-10-15T04:29:50;95260.22;;;12.18;99.73
16451;BME280;12243;42.708;23.310;2022-10-15T04:32:17;95258.28;;;12.20;99.03
16451;BME280;12243;42.708;23.310;2022-10-15T04:34:47;95250.47;;;12.20;99.36
16451;BME280;12243;42.708;23.310;2022-10-15T04:37:15;95262.00;;;12.18;99.30
16451;BME280;12243;42.708;23.310;2022-10-15T04:39:42;95260.78;;;12.22;99.06
16451;BME280;12243;42.708;23.310;2022-10-15T04:42:11;95255.41;;;12.23;98.23
16451;BME280;12243;42.708;23.310;2022-10-15T04:44:39;95260.09;;;12.20;98.78
16451;BME280;12243;42.708;23.310;2022-10-15T04:47:06;95264.63;;;12.18;98.90
16451;BME280;12243;42.708;23.310;2022-10-15T04:49:33;95270.78;;;12.07;99.52
16451;BME280;12243;42.708;23.310;2022-10-15T04:52:07;95268.06;;;12.18;99.73
16451;BME280;12243;42.708;23.310;2022-10-15T04:54:48;95269.03;;;12.27;98.93
16451;BME280;12243;42.708;23.310;2022-10-15T04:57:17;95281.84;;;12.30;98.09
16451;BME280;12243;42.708;23.310;2022-10-15T04:59:44;95279.63;;;12.25;98.89
16451;BME280;12243;42.708;23.310;2022-10-15T05:02:29;95279.66;;;12.35;97.97
16451;BME280;12243;42.708;23.310;2022-10-15T05:05:09;95280.03;;;12.30;98.93
16451;BME280;12243;42.708;23.310;2022-10-15T05:07:47;95282.41;;;12.33;98.93
16451;BME280;12243;42.708;23.310;2022-10-15T05:10:14;95280.22;;;12.38;98.52
16451;BME280;12243;42.708;23.310;2022-10-15T05:12:41;95282.47;;;12.53;96.45
16451;BME280;12243;42.708;23.310;2022-10-15T05:15:09;95284.38;;;12.51;95.91
16451;BME280;12243;42.708;23.310;2022-10-15T05:17:36;95284.34;;;12.41;96.14
16451;BME280;12243;42.708;23.310;2022-10-15T05:20:04;95284.06;;;12.34;97.80
16451;BME280;12243;42.708;23.310;2022-10-15T05:22:31;95292.31;;;12.39;96.78
16451;BME280;12243;42.708;23.310;2022-10-15T05:25:02;95289.88;;;12.48;96.52
16451;BME280;12243;42.708;23.310;2022-10-15T05:27:31;95283.53;;;12.40;96.57
16451;BME280;12243;42.708;23.310;2022-10-15T05:29:59;95292.06;;;12.43;96.48
16451;BME280;12243;42.708;23.310;2022-10-15T05:32:37;95295.34;;;12.45;96.54
16451;BME280;12243;42.708;23.310;2022-10-15T05:35:07;95304.75;;;12.57;95.04
16451;BME280;12243;42.708;23.310;2022-10-15T05:37:57;95305.84;;;12.54;95.70
16451;BME280;12243;42.708;23.310;2022-10-15T05:40:25;95309.00;;;12.58;95.41
16451;BME280;12243;42.708;23.310;2022-10-15T05:43:02;95310.69;;;12.69;93.79
16451;BME280;12243;42.708;23.310;2022-10-15T05:45:29;95305.34;;;12.70;94.22
16451;BME280;12243;42.708;23.310;2022-10-15T05:48:02;95317.03;;;12.66;93.71
16451;BME280;12243;42.708;23.310;2022-10-15T05:50:29;95324.88;;;12.66;93.37
16451;BME280;12243;42.708;23.310;2022-10-15T05:52:57;95321.81;;;12.61;93.49
16451;BME280;12243;42.708;23.310;2022-10-15T05:55:44;95330.09;;;12.76;92.94
16451;BME280;12243;42.708;23.310;2022-10-15T05:58:11;95323.94;;;12.77;90.82
16451;BME280;12243;42.708;23.310;2022-10-15T06:00:38;95326.84;;;12.83;90.23
16451;BME280;12243;42.708;23.310;2022-10-15T06:03:05;95324.06;;;12.85;90.41
16451;BME280;12243;42.708;23.310;2022-10-15T06:05:32;95320.63;;;12.84;90.35
16451;BME280;12243;42.708;23.310;2022-10-15T06:07:58;95324.63;;;12.88;90.30
16451;BME280;12243;42.708;23.310;2022-10-15T06:10:25;95326.28;;;12.90;89.68
16451;BME280;12243;42.708;23.310;2022-10-15T06:12:54;95329.00;;;12.78;90.27
16451;BME280;12243;42.708;23.310;2022-10-15T06:15:21;95333.69;;;12.75;90.88
16451;BME280;12243;42.708;23.310;2022-10-15T06:17:51;95336.72;;;12.90;91.20
16451;BME280;12243;42.708;23.310;2022-10-15T06:20:18;95333.31;;;12.99;91.02
16451;BME280;12243;42.708;23.310;2022-10-15T06:22:45;95341.72;;;13.02;90.88
16451;BME280;12243;42.708;23.310;2022-10-15T06:25:12;95339.28;;;13.20;90.73
16451;BME280;12243;42.708;23.310;2022-10-15T06:27:39;95342.75;;;13.30;89.87
16451;BME280;12243;42.708;23.310;2022-10-15T06:30:08;95340.69;;;13.44;89.80
16451;BME280;12243;42.708;23.310;2022-10-15T06:32:35;95341.53;;;13.64;87.92
16451;BME280;12243;42.708;23.310;2022-10-15T06:35:02;95352.94;;;13.72;88.07
16451;BME280;12243;42.708;23.310;2022-10-15T06:37:32;95351.13;;;13.92;90.39
16451;BME280;12243;42.708;23.310;2022-10-15T06:39:59;95358.03;;;13.83;87.24
16451;BME280;12243;42.708;23.310;2022-10-15T06:42:26;95353.22;;;13.89;87.09
16451;BME280;12243;42.708;23.310;2022-10-15T06:44:54;95350.72;;;13.97;86.75
16451;BME280;12243;42.708;23.310;2022-10-15T06:47:22;95349.19;;;14.04;86.31
16451;BME280;12243;42.708;23.310;2022-10-15T06:49:49;95358.25;;;14.19;85.70
16451;BME280;12243;42.708;23.310;2022-10-15T06:52:16;95355.31;;;14.32;85.11
16451;BME280;12243;42.708;23.310;2022-10-15T06:54:42;95358.69;;;14.62;82.97
16451;BME280;12243;42.708;23.310;2022-10-15T06:57:09;95359.41;;;14.54;82.97
16451;BME280;12243;42.708;23.310;2022-10-15T06:59:36;95357.09;;;14.51;83.84
16451;BME280;12243;42.708;23.310;2022-10-15T07:02:03;95362.50;;;14.67;83.10
16451;BME280;12243;42.708;23.310;2022-10-15T07:04:31;95363.59;;;14.74;82.56
16451;BME280;12243;42.708;23.310;2022-10-15T07:06:58;95364.81;;;14.80;82.35
16451;BME280;12243;42.708;23.310;2022-10-15T07:09:26;95368.25;;;14.81;81.78
16451;BME280;12243;42.708;23.310;2022-10-15T07:11:53;95366.81;;;14.68;82.47
16451;BME280;12243;42.708;23.310;2022-10-15T07:14:20;95371.94;;;14.60;82.12
16451;BME280;12243;42.708;23.310;2022-10-15T07:16:47;95375.63;;;14.67;81.94
16451;BME280;12243;42.708;23.310;2022-10-15T07:19:14;95370.50;;;14.75;81.43
16451;BME280;12243;42.708;23.310;2022-10-15T07:21:42;95376.66;;;14.84;81.24
16451;BME280;12243;42.708;23.310;2022-10-15T07:24:09;95374.00;;;14.94;80.66
16451;BME280;12243;42.708;23.310;2022-10-15T07:26:36;95363.47;;;15.04;80.36
16451;BME280;12243;42.708;23.310;2022-10-15T07:29:03;95373.81;;;15.23;79.88
16451;BME280;12243;42.708;23.310;2022-10-15T07:31:30;95365.81;;;15.24;78.06
16451;BME280;12243;42.708;23.310;2022-10-15T07:33:57;95374.28;;;15.36;77.45
16451;BME280;12243;42.708;23.310;2022-10-15T07:36:24;95368.00;;;15.47;77.30
16451;BME280;12243;42.708;23.310;2022-10-15T07:38:53;95362.63;;;15.66;75.89
16451;BME280;12243;42.708;23.310;2022-10-15T07:41:19;95369.75;;;15.92;74.87
16451;BME280;12243;42.708;23.310;2022-10-15T07:43:46;95364.19;;;16.21;73.18
16451;BME280;12243;42.708;23.310;2022-10-15T07:46:13;95368.22;;;16.33;70.72
16451;BME280;12243;42.708;23.310;2022-10-15T07:48:40;95370.38;;;16.38;71.10
16451;BME280;12243;42.708;23.310;2022-10-15T07:51:07;95378.19;;;16.48;71.27
16451;BME280;12243;42.708;23.310;2022-10-15T07:53:34;95370.50;;;16.54;69.74
16451;BME280;12243;42.708;23.310;2022-10-15T07:56:04;95370.31;;;16.56;70.35
16451;BME280;12243;42.708;23.310;2022-10-15T07:58:32;95377.09;;;16.58;68.16
16451;BME280;12243;42.708;23.310;2022-10-15T08:01:00;95372.44;;;16.52;68.84
16451;BME280;12243;42.708;23.310;2022-10-15T08:03:27;95381.22;;;16.35;69.74
16451;BME280;12243;42.708;23.310;2022-10-15T08:05:55;95382.91;;;16.44;69.88
16451;BME280;12243;42.708;23.310;2022-10-15T08:08:23;95374.94;;;16.54;68.85
16451;BME280;12243;42.708;23.310;2022-10-15T08:10:49;95370.59;;;16.71;68.00
16451;BME280;12243;42.708;23.310;2022-10-15T08:13:18;95376.94;;;16.86;68.03
16451;BME280;12243;42.708;23.310;2022-10-15T08:15:47;95369.50;;;17.16;65.47
16451;BME280;12243;42.708;23.310;2022-10-15T08:18:15;95369.50;;;17.16;64.83
16451;BME280;12243;42.708;23.310;2022-10-15T08:20:42;95368.50;;;17.17;64.71
16451;BME280;12243;42.708;23.310;2022-10-15T08:23:13;95367.19;;;17.21;64.36
16451;BME280;12243;42.708;23.310;2022-10-15T08:25:40;95366.25;;;17.38;62.90
16451;BME280;12243;42.708;23.310;2022-10-15T08:28:10;95366.75;;;17.42;63.37
16451;BME280;12243;42.708;23.310;2022-10-15T08:30:38;95363.59;;;17.38;61.82
16451;BME280;12243;42.708;23.310;2022-10-15T08:33:10;95367.41;;;17.44;62.47
16451;BME280;12243;42.708;23.310;2022-10-15T08:35:40;95367.06;;;17.30;62.68
16451;BME280;12243;42.708;23.310;2022-10-15T08:38:08;95351.69;;;17.09;63.19
16451;BME280;12243;42.708;23.310;2022-10-15T08:40:35;95352.63;;;16.92;64.89
16451;BME280;12243;42.708;23.310;2022-10-15T08:43:02;95352.31;;;16.95;64.47
16451;BME280;12243;42.708;23.310;2022-10-15T08:45:33;95351.00;;;17.07;65.12
16451;BME280;12243;42.708;23.310;2022-10-15T08:48:05;95341.81;;;17.11;64.62
16451;BME280;12243;42.708;23.310;2022-10-15T08:50:39;95339.19;;;17.11;63.45
16451;BME280;12243;42.708;23.310;2022-10-15T08:53:10;95345.13;;;17.13;63.86
16451;BME280;12243;42.708;23.310;2022-10-15T08:55:41;95337.91;;;17.32;63.43
16451;BME280;12243;42.708;23.310;2022-10-15T08:58:13;95348.75;;;17.29;62.64
16451;BME280;12243;42.708;23.310;2022-10-15T09:00:47;95347.13;;;17.28;61.40
16451;BME280;12243;42.708;23.310;2022-10-15T09:03:33;95347.06;;;17.11;62.41
16451;BME280;12243;42.708;23.310;2022-10-15T09:06:09;95356.97;;;17.18;62.47
16451;BME280;12243;42.708;23.310;2022-10-15T09:08:47;95356.34;;;17.24;61.68
16451;BME280;12243;42.708;23.310;2022-10-15T09:11:23;95350.56;;;17.20;62.72
16451;BME280;12243;42.708;23.310;2022-10-15T09:13:52;95348.00;;;17.45;61.58
16451;BME280;12243;42.708;23.310;2022-10-15T09:16:26;95352.78;;;17.74;60.16
16451;BME280;12243;42.708;23.310;2022-10-15T09:18:55;95354.44;;;17.75;60.85
16451;BME280;12243;42.708;23.310;2022-10-15T09:21:24;95349.00;;;17.68;60.27
16451;BME280;12243;42.708;23.310;2022-10-15T09:23:54;95350.78;;;17.68;59.37
16451;BME280;12243;42.708;23.310;2022-10-15T09:26:26;95345.19;;;17.71;59.87
16451;BME280;12243;42.708;23.310;2022-10-15T09:29:02;95338.47;;;17.68;57.94
16451;BME280;12243;42.708;23.310;2022-10-15T09:31:36;95345.53;;;17.59;58.95
16451;BME280;12243;42.708;23.310;2022-10-15T09:34:13;95339.41;;;17.26;60.77
16451;BME280;12243;42.708;23.310;2022-10-15T09:36:50;95338.22;;;17.12;61.25
16451;BME280;12243;42.708;23.310;2022-10-15T09:39:37;95348.75;;;17.29;60.07
16451;BME280;12243;42.708;23.310;2022-10-15T09:42:16;95335.31;;;17.40;59.46
16451;BME280;12243;42.708;23.310;2022-10-15T09:44:49;95336.28;;;17.39;59.16
16451;BME280;12243;42.708;23.310;2022-10-15T09:47:23;95340.84;;;17.21;60.12
16451;BME280;12243;42.708;23.310;2022-10-15T09:49:57;95345.88;;;16.98;60.48
16451;BME280;12243;42.708;23.310;2022-10-15T09:52:32;95336.63;;;16.85;61.01
16451;BME280;12243;42.708;23.310;2022-10-15T09:55:09;95331.56;;;16.92;61.52
16451;BME280;12243;42.708;23.310;2022-10-15T09:57:37;95345.13;;;17.22;60.98
16451;BME280;12243;42.708;23.310;2022-10-15T10:00:07;95340.91;;;17.53;59.97
16451;BME280;12243;42.708;23.310;2022-10-15T10:02:42;95338.66;;;18.07;57.69
16451;BME280;12243;42.708;23.310;2022-10-15T10:05:23;95335.78;;;18.50;55.69
16451;BME280;12243;42.708;23.310;2022-10-15T10:08:06;95337.16;;;18.85;54.78
16451;BME280;12243;42.708;23.310;2022-10-15T10:10:35;95333.16;;;18.97;54.19
16451;BME280;12243;42.708;23.310;2022-10-15T10:13:06;95334.41;;;19.18;52.93
16451;BME280;12243;42.708;23.310;2022-10-15T10:15:36;95330.34;;;19.30;53.33
16451;BME280;12243;42.708;23.310;2022-10-15T10:18:04;95330.94;;;19.40;51.92
16451;BME280;12243;42.708;23.310;2022-10-15T10:20:33;95332.72;;;19.48;51.39
16451;BME280;12243;42.708;23.310;2022-10-15T10:23:05;95339.88;;;19.70;50.64
16451;BME280;12243;42.708;23.310;2022-10-15T10:25:47;95319.72;;;19.69;49.36
16451;BME280;12243;42.708;23.310;2022-10-15T10:28:16;95324.28;;;19.75;50.08
16451;BME280;12243;42.708;23.310;2022-10-15T10:30:52;95316.16;;;20.00;49.95
16451;BME280;12243;42.708;23.310;2022-10-15T10:33:26;95318.66;;;20.16;49.94
16451;BME280;12243;42.708;23.310;2022-10-15T10:35:55;95321.31;;;20.31;49.35
16451;BME280;12243;42.708;23.310;2022-10-15T10:38:24;95318.03;;;20.29;48.76
16451;BME280;12243;42.708;23.310;2022-10-15T10:40:52;95327.31;;;19.87;50.26
16451;BME280;12243;42.708;23.310;2022-10-15T10:43:24;95322.81;;;19.73;49.40
16451;BME280;12243;42.708;23.310;2022-10-15T10:45:53;95308.16;;;19.62;50.32
16451;BME280;12243;42.708;23.310;2022-10-15T10:48:22;95315.84;;;19.49;51.20
16451;BME280;12243;42.708;23.310;2022-10-15T10:51:05;95308.28;;;19.77;49.95
16451;BME280;12243;42.708;23.310;2022-10-15T10:53:33;95303.72;;;19.86;48.62
16451;BME280;12243;42.708;23.310;2022-10-15T10:56:06;95305.06;;;19.59;48.74
16451;BME280;12243;42.708;23.310;2022-10-15T10:58:35;95313.72;;;19.52;49.10
16451;BME280;12243;42.708;23.310;2022-10-15T11:01:02;95314.28;;;19.40;49.49
16451;BME280;12243;42.708;23.310;2022-10-15T11:03:32;95308.34;;;19.07;50.53
16451;BME280;12243;42.708;23.310;2022-10-15T11:06:20;95305.78;;;18.98;50.99
16451;BME280;12243;42.708;23.310;2022-10-15T11:09:01;95309.16;;;18.84;51.41
16451;BME280;12243;42.708;23.310;2022-10-15T11:11:34;95304.78;;;18.99;51.34
16451;BME280;12243;42.708;23.310;2022-10-15T11:14:11;95306.31;;;19.17;51.11
16451;BME280;12243;42.708;23.310;2022-10-15T11:16:48;95295.59;;;19.18;49.95
16451;BME280;12243;42.708;23.310;2022-10-15T11:19:24;95300.97;;;19.33;49.42
16451;BME280;12243;42.708;23.310;2022-10-15T11:22:09;95317.22;;;19.22;49.07
16451;BME280;12243;42.708;23.310;2022-10-15T11:24:44;95309.91;;;19.24;49.21
16451;BME280;12243;42.708;23.310;2022-10-15T11:27:33;95305.63;;;19.23;49.76
16451;BME280;12243;42.708;23.310;2022-10-15T11:30:17;95298.41;;;19.17;49.17
16451;BME280;12243;42.708;23.310;2022-10-15T11:32:58;95307.81;;;19.19;49.33
16451;BME280;12243;42.708;23.310;2022-10-15T11:35:35;95294.31;;;19.14;48.38
16451;BME280;12243;42.708;23.310;2022-10-15T11:38:15;95298.19;;;18.95;48.46
16451;BME280;12243;42.708;23.310;2022-10-15T11:40:54;95292.63;;;18.90;49.09
16451;BME280;12243;42.708;23.310;2022-10-15T11:43:37;95298.13;;;19.12;48.84
16451;BME280;12243;42.708;23.310;2022-10-15T11:46:11;95301.38;;;19.22;48.29
16451;BME280;12243;42.708;23.310;2022-10-15T11:48:51;95284.34;;;19.47;48.30
16451;BME280;12243;42.708;23.310;2022-10-15T11:51:28;95282.94;;;19.60;47.94
16451;BME280;12243;42.708;23.310;2022-10-15T11:54:12;95288.59;;;19.57;47.41
16451;BME280;12243;42.708;23.310;2022-10-15T11:56:44;95289.78;;;19.23;47.75
16451;BME280;12243;42.708;23.310;2022-10-15T11:59:28;95295.91;;;18.92;48.80
16451;BME280;12243;42.708;23.310;2022-10-15T12:01:59;95293.00;;;18.71;48.89
16451;BME280;12243;42.708;23.310;2022-10-15T12:04:35;95289.22;;;18.65;49.45
16451;BME280;12243;42.708;23.310;2022-10-15T12:07:06;95290.88;;;19.06;49.19
16451;BME280;12243;42.708;23.310;2022-10-15T12:09:36;95290.44;;;19.25;48.42
16451;BME280;12243;42.708;23.310;2022-10-15T12:12:11;95294.59;;;18.88;48.94
16451;BME280;12243;42.708;23.310;2022-10-15T12:14:46;95307.91;;;18.47;50.39
16451;BME280;12243;42.708;23.310;2022-10-15T12:17:21;95304.41;;;17.99;52.04
16451;BME280;12243;42.708;23.310;2022-10-15T12:19:51;95303.75;;;17.89;52.69
16451;BME280;12243;42.708;23.310;2022-10-15T12:22:31;95311.00;;;17.87;52.13
16451;BME280;12243;42.708;23.310;2022-10-15T12:25:00;95307.69;;;17.69;53.40
16451;BME280;12243;42.708;23.310;2022-10-15T12:27:30;95310.47;;;17.51;54.05
16451;BME280;12243;42.708;23.310;2022-10-15T12:30:23;95301.72;;;17.42;54.47
16451;BME280;12243;42.708;23.310;2022-10-15T12:32:52;95305.81;;;17.28;55.15
16451;BME280;12243;42.708;23.310;2022-10-15T12:35:29;95292.50;;;17.38;55.06
16451;BME280;12243;42.708;23.310;2022-10-15T12:38:08;95296.28;;;17.35;54.90
16451;BME280;12243;42.708;23.310;2022-10-15T12:40:38;95300.59;;;17.45;55.16
16451;BME280;12243;42.708;23.310;2022-10-15T12:43:12;95291.84;;;17.36;55.52
16451;BME280;12243;42.708;23.310;2022-10-15T12:45:50;95292.69;;;17.45;56.09
16451;BME280;12243;42.708;23.310;2022-10-15T12:48:21;95292.53;;;17.62;54.90
16451;BME280;12243;42.708;23.310;2022-10-15T12:51:28;95291.06;;;17.68;54.01
16451;BME280;12243;42.708;23.310;2022-10-15T12:53:55;95284.81;;;17.61;54.40
16451;BME280;12243;42.708;23.310;2022-10-15T12:56:34;95292.22;;;17.57;55.47
16451;BME280;12243;42.708;23.310;2022-10-15T12:59:01;95289.91;;;17.54;55.94
16451;BME280;12243;42.708;23.310;2022-10-15T13:01:49;95287.44;;;17.69;55.54
16451;BME280;12243;42.708;23.310;2022-10-15T13:04:17;95286.28;;;17.72;54.63
16451;BME280;12243;42.708;23.310;2022-10-15T13:06:45;95297.00;;;17.54;55.35
16451;BME280;12243;42.708;23.310;2022-10-15T13:09:22;95301.09;;;17.56;55.79
16451;BME280;12243;42.708;23.310;2022-10-15T13:11:55;95288.25;;;17.70;55.33
16451;BME280;12243;42.708;23.310;2022-10-15T13:14:28;95281.00;;;17.72;55.42